Terminal Aerodrome Forecast
Issued by NWS

Home | Current Version | Previous Version | Graphics & Text | Print | Product List | Glossary On
Versions: 1 2 3 4 5 6 7 8 9 10 11 12 13 14 15 16 17
000
FTUS43 KMPX 222333
TAFAXN
TAF
KAXN 222333Z 2300/2324 15007KT P6SM SCT200
     FM230200 12006KT P6SM FEW250
     FM231300 12008KT P6SM BKN110
     FM231600 13012KT P6SM BKN050=

USA.gov is the U.S. government's official web portal to all federal, state and local government web resources and services.